createdAt,value
2023-03-05T11:05:32.112Z,958.46
2023-03-05T11:06:32.054Z,958.50
2023-03-05T11:07:32.017Z,958.49
2023-03-05T11:08:31.986Z,958.53
2023-03-05T11:09:31.953Z,958.48
2023-03-05T11:10:31.920Z,958.45
2023-03-05T11:11:31.915Z,958.48
2023-03-05T11:12:31.857Z,958.50
2023-03-05T11:13:31.824Z,958.41
2023-03-05T11:14:31.795Z,958.43
2023-03-05T11:15:31.764Z,958.41
2023-03-05T11:16:31.739Z,958.42
2023-03-05T11:17:31.710Z,958.40
2023-03-05T11:18:31.678Z,958.37
2023-03-05T11:19:31.670Z,958.34
2023-03-05T11:20:31.622Z,958.37
2023-03-05T11:21:31.602Z,958.34
2023-03-05T11:22:31.556Z,958.33
2023-03-05T11:23:31.536Z,958.30
2023-03-05T11:24:31.495Z,958.27
2023-03-05T11:25:31.464Z,958.29
2023-03-05T11:26:31.440Z,958.27
2023-03-05T11:27:31.403Z,958.23
2023-03-05T11:28:33.556Z,958.25
2023-03-05T11:29:31.346Z,958.23
2023-03-05T11:30:31.532Z,958.19
2023-03-05T11:31:31.286Z,958.16
2023-03-05T11:32:31.312Z,958.21
2023-03-05T11:33:31.228Z,958.17
2023-03-05T11:34:31.199Z,958.13
2023-03-05T11:35:31.239Z,958.13
2023-03-05T11:36:31.142Z,958.11
2023-03-05T11:37:31.128Z,958.08
2023-03-05T11:38:31.390Z,958.05
2023-03-05T11:39:31.053Z,958.04
2023-03-05T11:40:31.027Z,958.06
2023-03-05T11:41:30.998Z,958.04
2023-03-05T11:42:30.969Z,958.04
2023-03-05T11:43:30.938Z,958.07
2023-03-05T11:44:30.911Z,958.03
2023-03-05T11:45:30.881Z,958.02
2023-03-05T11:46:30.923Z,958.00
2023-03-05T11:47:30.822Z,958.01
2023-03-05T11:48:30.797Z,957.95
2023-03-05T11:49:31.429Z,957.92
2023-03-05T11:50:30.738Z,957.89
2023-03-05T11:51:30.706Z,957.86
2023-03-05T11:52:30.680Z,957.86
2023-03-05T11:53:30.672Z,957.85
2023-03-05T11:54:30.628Z,957.84
2023-03-05T11:55:30.594Z,957.83
2023-03-05T11:56:30.580Z,957.83
2023-03-05T11:57:30.539Z,957.78
2023-03-05T11:58:30.517Z,957.79
2023-03-05T11:59:30.493Z,957.78
2023-03-05T12:00:30.456Z,957.77
2023-03-05T12:01:30.425Z,957.72
2023-03-05T12:02:30.409Z,957.73
2023-03-05T12:03:30.433Z,957.72
2023-03-05T12:04:30.346Z,957.68
2023-03-05T12:05:30.317Z,957.65
2023-03-05T12:06:30.294Z,957.65
2023-03-05T12:07:30.255Z,957.66
2023-03-05T12:08:30.228Z,957.67
2023-03-05T12:09:30.240Z,957.64
2023-03-05T12:10:30.179Z,957.62
2023-03-05T12:11:30.141Z,957.63
2023-03-05T12:12:30.119Z,957.62
2023-03-05T12:13:30.087Z,957.58
2023-03-05T12:14:30.058Z,957.56
2023-03-05T12:15:30.031Z,957.56
2023-03-05T12:16:30.137Z,957.54
2023-03-05T12:17:29.980Z,957.53
2023-03-05T12:18:29.971Z,957.53
2023-03-05T12:19:29.914Z,957.50
2023-03-05T12:20:29.945Z,957.45
2023-03-05T12:21:29.858Z,957.46
2023-03-05T12:22:29.832Z,957.42
2023-03-05T12:23:29.801Z,957.35
2023-03-05T12:24:29.775Z,957.34
2023-03-05T12:25:29.770Z,957.32
2023-03-05T12:26:29.718Z,957.30
2023-03-05T12:27:29.691Z,957.30
2023-03-05T12:28:29.663Z,957.29
2023-03-05T12:29:29.630Z,957.23
2023-03-05T12:30:29.609Z,957.23
2023-03-05T12:31:29.625Z,957.22
2023-03-05T12:32:29.694Z,957.20
2023-03-05T12:33:29.514Z,957.19
2023-03-05T12:34:29.489Z,957.17
2023-03-05T12:35:29.529Z,957.15
2023-03-05T12:36:29.426Z,957.16
2023-03-05T12:37:29.397Z,957.17
2023-03-05T12:38:29.370Z,957.12
2023-03-05T12:39:29.340Z,957.13
2023-03-05T12:40:29.315Z,957.10
2023-03-05T12:41:29.668Z,957.11
2023-03-05T12:42:29.253Z,957.10
2023-03-05T12:43:29.223Z,957.07
2023-03-05T12:44:29.196Z,957.13
2023-03-05T12:45:29.166Z,957.11
2023-03-05T12:46:29.232Z,957.08
2023-03-05T12:47:29.107Z,957.05
2023-03-05T12:48:29.114Z,957.05
2023-03-05T12:49:29.052Z,957.04
2023-03-05T12:50:29.097Z,957.05
2023-03-05T12:51:29.005Z,957.02
2023-03-05T12:52:28.963Z,956.99
2023-03-05T12:53:28.935Z,956.96
2023-03-05T12:54:28.944Z,956.96
2023-03-05T12:55:28.876Z,956.90
2023-03-05T12:56:28.853Z,956.90
2023-03-05T12:57:28.838Z,956.90
2023-03-05T12:58:28.813Z,956.88
2023-03-05T12:59:28.769Z,956.90
2023-03-05T13:00:28.807Z,956.88
2023-03-05T13:01:28.708Z,956.84
2023-03-05T13:02:28.691Z,956.79
2023-03-05T13:03:28.670Z,956.82
2023-03-05T13:04:28.625Z,956.79
2023-03-05T13:05:28.596Z,956.74
2023-03-05T13:06:28.563Z,956.62
2023-03-05T13:07:28.531Z,956.61
2023-03-05T13:08:28.507Z,956.62
2023-03-05T13:09:28.490Z,956.59
2023-03-05T13:10:28.449Z,956.56
2023-03-05T13:11:28.421Z,956.58
2023-03-05T13:12:28.398Z,956.55
2023-03-05T13:18:18.616Z,956.53
2023-03-05T13:20:32.972Z,956.52
2023-03-05T13:20:33.451Z,956.54
2023-03-05T13:21:33.448Z,956.47
2023-03-05T13:22:33.396Z,956.50
2023-03-05T13:24:04.749Z,956.49
2023-03-05T13:25:04.718Z,956.44
2023-03-05T13:26:04.690Z,956.46
2023-03-05T13:27:04.662Z,956.44
2023-03-05T13:28:04.631Z,956.31
2023-03-05T13:29:04.604Z,956.30
2023-03-05T13:30:04.578Z,956.38
2023-03-05T13:31:04.556Z,956.42
2023-03-05T13:32:04.568Z,956.43
2023-03-05T13:32:52.642Z,956.44
2023-03-05T13:33:52.629Z,956.45
2023-03-05T13:34:52.585Z,956.49
2023-03-05T13:35:54.098Z,956.51
2023-03-05T13:36:52.525Z,956.53
2023-03-05T13:37:52.511Z,956.49
2023-03-05T13:38:52.477Z,956.51
2023-03-05T13:39:52.446Z,956.49
2023-03-05T13:40:52.417Z,956.49
2023-03-05T13:41:52.385Z,956.47
2023-03-05T13:42:52.356Z,956.47
2023-03-05T13:43:52.337Z,956.45
2023-03-05T13:44:52.298Z,956.45
2023-03-05T13:45:52.331Z,956.44
2023-03-05T13:46:52.242Z,956.42
2023-03-05T13:47:52.214Z,956.41
2023-03-05T13:48:52.195Z,956.40
2023-03-05T13:49:52.177Z,956.38
2023-03-05T13:50:52.130Z,956.36
2023-03-05T13:51:52.099Z,956.38
2023-03-05T13:52:52.070Z,956.37
2023-03-05T13:53:52.042Z,956.36
2023-03-05T13:54:52.011Z,956.37
2023-03-05T13:55:51.987Z,956.35
2023-03-05T13:56:51.956Z,956.30
2023-03-05T13:57:51.929Z,956.32
2023-03-05T13:58:51.899Z,956.30
2023-03-05T13:59:51.873Z,956.29
2023-03-05T14:00:51.862Z,956.27
2023-03-05T14:01:51.816Z,956.24
2023-03-05T14:02:51.798Z,956.27
2023-03-05T14:03:51.760Z,956.25
2023-03-05T14:04:51.840Z,956.23
2023-03-05T14:05:51.716Z,956.22
2023-03-05T14:06:51.688Z,956.24
2023-03-05T14:07:51.650Z,956.25
2023-03-05T14:08:51.621Z,956.22
2023-03-05T14:09:51.589Z,956.21
2023-03-05T14:10:51.561Z,956.23
2023-03-05T14:11:51.533Z,956.20
2023-03-05T14:12:51.503Z,956.17
2023-03-05T14:13:51.477Z,956.12
2023-03-05T14:14:51.450Z,956.11
2023-03-05T14:15:51.422Z,956.09
2023-03-05T14:16:51.475Z,956.09
2023-03-05T14:17:51.374Z,956.13
2023-03-05T14:18:51.341Z,956.10
2023-03-05T14:19:51.313Z,956.08
2023-03-05T14:20:51.285Z,956.07
2023-03-05T14:21:51.276Z,956.06
2023-03-05T14:22:51.235Z,956.06
2023-03-05T14:23:51.205Z,956.03
2023-03-05T14:24:51.176Z,956.02
2023-03-05T14:25:51.150Z,955.97
2023-03-05T14:26:51.123Z,955.99
2023-03-05T14:27:51.098Z,955.99
2023-03-05T14:28:51.069Z,955.96
2023-03-05T14:29:51.041Z,955.94
2023-03-05T14:30:51.114Z,955.90
2023-03-05T14:31:50.987Z,955.92
2023-03-05T14:32:51.030Z,955.90
2023-03-05T14:33:50.939Z,955.88
2023-03-05T14:34:50.922Z,955.88
2023-03-05T14:35:50.957Z,955.86
2023-03-05T14:36:50.856Z,955.87
2023-03-05T14:37:50.847Z,955.85
2023-03-05T14:38:50.800Z,955.87
2023-03-05T14:39:50.784Z,955.93
2023-03-05T14:40:50.794Z,955.85
2023-03-05T14:41:50.722Z,955.86
2023-03-05T14:42:50.696Z,955.92
2023-03-05T14:43:50.681Z,955.93
2023-03-05T14:44:50.642Z,955.88
2023-03-05T14:45:50.646Z,955.88
2023-03-05T14:46:50.595Z,955.76
2023-03-05T14:47:50.566Z,955.82
2023-03-05T14:48:50.544Z,955.73
2023-03-05T14:49:50.515Z,955.73
2023-03-05T14:50:50.487Z,955.71
2023-03-05T14:51:50.462Z,955.71
2023-03-05T14:52:50.436Z,955.68
2023-03-05T14:53:50.437Z,955.71
2023-03-05T14:54:50.393Z,955.67
2023-03-05T14:55:50.384Z,955.63
2023-03-05T14:56:50.336Z,955.67
2023-03-05T14:57:50.314Z,955.64
2023-03-05T14:58:50.289Z,955.64
2023-03-05T14:59:50.266Z,955.61
2023-03-05T15:00:51.349Z,955.58
2023-03-05T15:01:50.267Z,955.58
2023-03-05T15:02:50.191Z,955.51
2023-03-05T15:03:50.169Z,955.49
2023-03-05T15:04:50.142Z,955.47
2023-03-05T15:05:50.125Z,955.45
2023-03-05T15:06:50.094Z,955.46
2023-03-05T15:07:50.069Z,955.46
2023-03-05T15:08:50.050Z,955.49
2023-03-05T15:09:50.045Z,955.46
2023-03-05T15:10:49.996Z,955.41
2023-03-05T15:11:49.980Z,955.43
2023-03-05T15:12:49.948Z,955.36
2023-03-05T15:13:49.928Z,955.35
2023-03-05T15:14:49.902Z,955.36
2023-03-05T15:15:49.921Z,955.37
2023-03-05T15:16:49.853Z,955.37
2023-03-05T15:17:49.831Z,955.33
2023-03-05T15:18:49.813Z,955.32
2023-03-05T15:19:49.785Z,955.34
2023-03-05T15:20:49.760Z,955.31
2023-03-05T15:21:49.739Z,955.34
2023-03-05T15:22:49.717Z,955.36
2023-03-05T15:23:49.691Z,955.30
2023-03-05T15:24:49.671Z,955.32
2023-03-05T15:25:49.918Z,955.27
2023-03-05T15:26:50.279Z,955.24
2023-03-05T15:27:49.599Z,955.22
2023-03-05T15:28:49.574Z,955.21
2023-03-05T15:29:49.553Z,955.20
2023-03-05T15:30:49.595Z,955.18
2023-03-05T15:31:49.506Z,955.15
2023-03-05T15:32:49.484Z,955.13
2023-03-05T15:33:49.460Z,955.16
2023-03-05T15:34:49.440Z,955.10
2023-03-05T15:35:49.473Z,955.10
2023-03-05T15:36:49.390Z,955.11
2023-03-05T15:37:49.371Z,955.08
2023-03-05T15:38:49.348Z,955.08
2023-03-05T15:39:49.327Z,955.04
2023-03-05T15:40:49.299Z,954.99
2023-03-05T15:41:49.294Z,955.03
2023-03-05T15:42:49.253Z,955.03
2023-03-05T15:43:49.231Z,955.04
2023-03-05T15:44:49.202Z,954.99
2023-03-05T15:45:49.178Z,955.00
2023-03-05T15:46:49.153Z,955.07
2023-03-05T15:47:49.131Z,955.03
2023-03-05T15:48:49.107Z,954.99
2023-03-05T15:49:49.085Z,955.00
2023-03-05T15:50:49.057Z,954.99
2023-03-05T15:51:49.031Z,954.97
2023-03-05T15:52:49.007Z,954.93
2023-03-05T15:53:48.985Z,954.95
2023-03-05T15:54:48.959Z,954.95
2023-03-05T15:55:48.932Z,954.94
2023-03-05T15:56:48.911Z,954.92
2023-03-05T15:57:48.922Z,954.88
2023-03-05T15:58:48.859Z,954.86
2023-03-05T15:59:48.837Z,954.88
2023-03-05T16:00:48.812Z,954.84
2023-03-05T16:01:49.023Z,954.80
2023-03-05T16:02:48.785Z,954.80
2023-03-05T16:03:48.737Z,954.76
2023-03-05T16:04:48.714Z,954.76
2023-03-05T16:05:48.688Z,954.76
2023-03-05T16:06:48.661Z,954.79
2023-03-05T16:07:50.240Z,954.81
2023-03-05T16:08:48.615Z,954.81
2023-03-05T16:09:48.593Z,954.77
2023-03-05T16:10:48.574Z,954.76
2023-03-05T16:11:48.541Z,954.74
2023-03-05T16:12:48.512Z,954.74
2023-03-05T16:13:48.509Z,954.72
2023-03-05T16:14:50.803Z,954.73
2023-03-05T16:15:48.474Z,954.73
2023-03-05T16:16:48.415Z,954.71
2023-03-05T16:17:48.388Z,954.77
2023-03-05T16:18:48.363Z,954.75
2023-03-05T16:19:48.337Z,954.70
2023-03-05T16:20:48.310Z,954.69
2023-03-05T16:21:48.309Z,954.65
2023-03-05T16:22:48.270Z,954.66
2023-03-05T16:23:48.233Z,954.63
2023-03-05T16:24:48.214Z,954.60
2023-03-05T16:25:48.185Z,954.63
2023-03-05T16:26:48.159Z,954.60
2023-03-05T16:27:48.134Z,954.60
2023-03-05T16:28:48.101Z,954.68
2023-03-05T16:29:48.112Z,954.64
2023-03-05T16:30:48.052Z,954.64
2023-03-05T16:31:48.069Z,954.59
2023-03-05T16:32:47.995Z,954.56
2023-03-05T16:33:47.972Z,954.56
2023-03-05T16:34:47.951Z,954.55
2023-03-05T16:35:47.974Z,954.54
2023-03-05T16:36:47.928Z,954.58
2023-03-05T16:37:47.863Z,954.56
2023-03-05T16:38:47.845Z,954.61
2023-03-05T16:39:47.815Z,954.60
2023-03-05T16:41:08.199Z,954.57
2023-03-05T16:41:47.755Z,954.57
2023-03-05T16:42:47.727Z,954.52
2023-03-05T16:43:47.704Z,954.50
2023-03-05T16:44:47.679Z,954.53
2023-03-05T16:45:47.670Z,954.51
2023-03-05T16:46:47.674Z,954.52
2023-03-05T16:47:47.597Z,954.52
2023-03-05T16:48:47.567Z,954.54
2023-03-05T16:49:47.533Z,954.57
2023-03-05T16:50:47.503Z,954.53
2023-03-05T16:51:47.491Z,954.51
2023-03-05T16:52:47.448Z,954.48
2023-03-05T16:53:47.431Z,954.50
2023-03-05T16:54:47.405Z,954.51
2023-03-05T16:55:47.364Z,954.47
2023-03-05T16:56:47.336Z,954.49
2023-03-05T16:57:47.309Z,954.46
2023-03-05T16:58:47.279Z,954.44
2023-03-05T16:59:47.253Z,954.45
2023-03-05T17:00:47.263Z,954.44
2023-03-05T17:01:47.212Z,954.42
2023-03-05T17:02:47.166Z,954.42
2023-03-05T17:03:47.212Z,954.45
2023-03-05T17:04:47.108Z,954.39
2023-03-05T17:05:47.082Z,954.40
2023-03-05T17:06:47.059Z,954.39
2023-03-05T17:07:47.029Z,954.39
2023-03-05T17:08:46.994Z,954.43
2023-03-05T17:09:46.965Z,954.43
2023-03-05T17:10:46.937Z,954.40
2023-03-05T17:11:46.907Z,954.44
2023-03-05T17:12:46.877Z,954.44
2023-03-05T17:13:48.877Z,954.47
2023-03-05T17:14:46.819Z,954.50
2023-03-05T17:15:46.795Z,954.52
2023-03-05T17:16:46.852Z,954.51
2023-03-05T17:17:46.752Z,954.54
2023-03-05T17:18:46.714Z,954.51
2023-03-05T17:19:46.682Z,954.54
2023-03-05T17:20:46.649Z,954.52
2023-03-05T17:21:46.623Z,954.54
2023-03-05T17:22:46.589Z,954.49
2023-03-05T17:23:46.560Z,954.52
2023-03-05T17:24:46.530Z,954.49
2023-03-05T17:25:46.503Z,954.54
2023-03-05T17:26:46.483Z,954.51
2023-03-05T17:27:46.442Z,954.52
2023-03-05T17:28:46.413Z,954.53
2023-03-05T17:29:46.387Z,954.55
2023-03-05T17:30:46.375Z,954.51
2023-03-05T17:31:46.410Z,954.57
2023-03-05T17:32:46.297Z,954.58
2023-03-05T17:33:46.293Z,954.59
2023-03-05T17:34:46.242Z,954.59
2023-03-05T17:35:46.243Z,954.56
2023-03-05T17:36:46.178Z,954.59
2023-03-05T17:37:46.150Z,954.58
2023-03-05T17:38:46.130Z,954.54
2023-03-05T17:39:46.090Z,954.57
2023-03-05T17:40:46.071Z,954.53
2023-03-05T17:41:46.038Z,954.57
2023-03-05T17:42:46.002Z,954.57
2023-03-05T17:43:45.974Z,954.57
2023-03-05T17:44:45.991Z,954.56
2023-03-05T17:45:45.950Z,954.54
2023-03-05T17:46:45.881Z,954.56
2023-03-05T17:47:45.850Z,954.58
2023-03-05T17:48:45.824Z,954.53
2023-03-05T17:49:45.814Z,954.60
2023-03-05T17:50:45.762Z,954.58
2023-03-05T17:51:45.731Z,954.56
2023-03-05T17:52:45.707Z,954.59
2023-03-05T17:53:45.670Z,954.55
2023-03-05T17:54:45.641Z,954.61
2023-03-05T17:55:45.610Z,954.63
2023-03-05T17:56:45.580Z,954.62
2023-03-05T17:57:45.549Z,954.60
2023-03-05T17:58:45.529Z,954.65
2023-03-05T17:59:45.488Z,954.62
2023-03-05T18:00:45.524Z,954.67
2023-03-05T18:01:45.482Z,954.68
2023-03-05T18:02:45.400Z,954.69
2023-03-05T18:03:45.367Z,954.68
2023-03-05T18:04:45.337Z,954.71
2023-03-05T18:05:45.325Z,954.72
2023-03-05T18:06:45.277Z,954.71
2023-03-05T18:07:45.244Z,954.73
2023-03-05T18:08:45.225Z,954.72
2023-03-05T18:09:45.185Z,954.70
2023-03-05T18:10:45.170Z,954.71
2023-03-05T18:11:45.125Z,954.69
2023-03-05T18:12:45.101Z,954.71
2023-03-05T18:13:45.061Z,954.71
2023-03-05T18:14:45.030Z,954.71
2023-03-05T18:15:44.999Z,954.69
2023-03-05T18:16:45.025Z,954.68
2023-03-05T18:17:44.940Z,954.67
2023-03-05T18:18:44.908Z,954.69
2023-03-05T18:19:44.876Z,954.69
2023-03-05T18:20:44.849Z,954.64
2023-03-05T18:21:44.838Z,954.65
2023-03-05T18:22:44.786Z,954.65
2023-03-05T18:23:44.751Z,954.64
2023-03-05T18:24:44.726Z,954.64
2023-03-05T18:25:44.696Z,954.65
2023-03-05T18:26:44.660Z,954.63
2023-03-05T18:27:44.636Z,954.63
2023-03-05T18:28:44.631Z,954.64
2023-03-05T18:29:44.581Z,954.66
2023-03-05T18:30:44.601Z,954.61
2023-03-05T18:31:44.501Z,954.64
2023-03-05T18:32:44.469Z,954.61
2023-03-05T18:33:44.443Z,954.60
2023-03-05T18:34:44.408Z,954.66
2023-03-05T18:35:44.425Z,954.60
2023-03-05T18:36:44.344Z,954.63
2023-03-05T18:37:44.338Z,954.62
2023-03-05T18:38:44.282Z,954.60
2023-03-05T18:39:44.271Z,954.60
2023-03-05T18:40:44.218Z,954.59
2023-03-05T18:41:44.188Z,954.57
2023-03-05T18:42:44.160Z,954.60
2023-03-05T18:43:44.126Z,954.54
2023-03-05T18:44:44.094Z,954.56
2023-03-05T18:45:44.081Z,954.53
2023-03-05T18:46:44.031Z,954.53
2023-03-05T18:47:44.000Z,954.53
2023-03-05T18:48:43.973Z,954.50
2023-03-05T18:49:43.937Z,954.51
2023-03-05T18:50:43.906Z,954.46
2023-03-05T18:51:43.880Z,954.46
2023-03-05T18:52:43.841Z,954.43
2023-03-05T18:53:43.835Z,954.45
2023-03-05T18:54:43.780Z,954.47
2023-03-05T18:55:43.749Z,954.42
2023-03-05T18:56:43.721Z,954.40
2023-03-05T18:57:43.689Z,954.40
2023-03-05T18:58:43.654Z,954.41
2023-03-05T18:59:43.623Z,954.42
2023-03-05T19:00:43.591Z,954.39
2023-03-05T19:01:43.596Z,954.40
2023-03-05T19:02:43.528Z,954.38
2023-03-05T19:03:43.496Z,954.40
2023-03-05T19:04:43.467Z,954.38
2023-03-05T19:05:43.548Z,954.38
2023-03-05T19:06:43.435Z,954.36
2023-03-05T19:07:43.396Z,954.35
2023-03-05T19:08:43.341Z,954.41
2023-03-05T19:09:43.326Z,954.35
2023-03-05T19:10:43.282Z,954.37
2023-03-05T19:11:43.247Z,954.36
2023-03-05T19:12:43.216Z,954.38
2023-03-05T19:13:43.183Z,954.37
2023-03-05T19:14:43.153Z,954.37
2023-03-05T19:15:43.138Z,954.35
2023-03-05T19:16:43.092Z,954.33
2023-03-05T19:17:43.068Z,954.34
2023-03-05T19:18:43.036Z,954.33
2023-03-05T19:19:42.995Z,954.31
2023-03-05T19:20:42.965Z,954.30
2023-03-05T19:21:42.936Z,954.28
2023-03-05T19:22:42.905Z,954.27
2023-03-05T19:23:42.866Z,954.27
2023-03-05T19:24:42.836Z,954.27
2023-03-05T19:25:42.823Z,954.30
2023-03-05T19:26:42.774Z,954.28
2023-03-05T19:27:42.740Z,954.25
2023-03-05T19:28:42.714Z,954.23
2023-03-05T19:29:42.677Z,954.26
2023-03-05T19:30:42.698Z,954.21
2023-03-05T19:31:42.681Z,954.24
2023-03-05T19:32:42.670Z,954.26
2023-03-05T19:33:42.548Z,954.24
2023-03-05T19:34:42.520Z,954.22
2023-03-05T19:35:42.536Z,954.22
2023-03-05T19:36:42.452Z,954.19
2023-03-05T19:37:42.456Z,954.20
2023-03-05T19:38:42.401Z,954.20
2023-03-05T19:39:42.356Z,954.18
2023-03-05T19:40:42.326Z,954.14
2023-03-05T19:41:42.321Z,954.18
2023-03-05T19:42:42.265Z,954.18
2023-03-05T19:43:42.242Z,954.15
2023-03-05T19:44:42.203Z,954.16
2023-03-05T19:45:42.164Z,954.18
2023-03-05T19:46:42.323Z,954.17
2023-03-05T19:47:42.104Z,954.17
2023-03-05T19:48:42.069Z,954.16
2023-03-05T19:49:42.039Z,954.17
2023-03-05T19:50:42.006Z,954.14
2023-03-05T19:51:41.973Z,954.13
2023-03-05T19:52:41.944Z,954.15
2023-03-05T19:53:41.911Z,954.15
2023-03-05T19:54:41.877Z,954.11
2023-03-05T19:55:41.845Z,954.13
2023-03-05T19:56:41.826Z,954.14
2023-03-05T19:57:41.800Z,954.13
2023-03-05T19:58:41.749Z,954.15
2023-03-05T19:59:41.717Z,954.16
2023-03-05T20:00:41.693Z,954.13
2023-03-05T20:01:41.675Z,954.12
2023-03-05T20:02:41.633Z,954.12
2023-03-05T20:03:41.589Z,954.13
2023-03-05T20:04:41.556Z,954.10
2023-03-05T20:05:41.523Z,954.07
2023-03-05T20:06:41.492Z,954.10
2023-03-05T20:07:41.457Z,954.10
2023-03-05T20:08:41.433Z,954.11
2023-03-05T20:09:41.433Z,954.13
2023-03-05T20:10:41.367Z,954.10
2023-03-05T20:11:41.338Z,954.10
2023-03-05T20:12:41.303Z,954.11
2023-03-05T20:13:41.289Z,954.10
2023-03-05T20:14:41.248Z,954.09
2023-03-05T20:15:41.206Z,954.08
2023-03-05T20:16:41.179Z,954.08
2023-03-05T20:17:41.141Z,954.08
2023-03-05T20:18:41.112Z,954.07
2023-03-05T20:19:41.077Z,954.08
2023-03-05T20:20:41.047Z,954.10
2023-03-05T20:21:41.028Z,954.06
2023-03-05T20:22:40.984Z,954.06
2023-03-05T20:23:40.949Z,953.98
2023-03-05T20:24:40.925Z,953.97
2023-03-05T20:25:40.885Z,953.95
2023-03-05T20:26:40.861Z,953.97
2023-03-05T20:27:40.825Z,953.99
2023-03-05T20:28:40.789Z,953.97
2023-03-05T20:29:40.775Z,953.97
2023-03-05T20:30:40.727Z,953.96
2023-03-05T20:31:40.821Z,953.94
2023-03-05T20:32:40.674Z,953.95
2023-03-05T20:33:40.630Z,953.96
2023-03-05T20:34:40.600Z,953.96
2023-03-05T20:35:40.586Z,954.00
2023-03-05T20:36:40.531Z,953.93
2023-03-05T20:37:40.497Z,953.94
2023-03-05T20:38:40.467Z,953.94
2023-03-05T20:39:40.433Z,953.96
2023-03-05T20:40:40.401Z,953.92
2023-03-05T20:41:40.378Z,953.91
2023-03-05T20:42:40.338Z,953.91
2023-03-05T20:43:40.303Z,953.88
2023-03-05T20:44:40.273Z,953.90
2023-03-05T20:45:40.261Z,953.91
2023-03-05T20:46:40.254Z,953.89
2023-03-05T20:47:40.185Z,953.89
2023-03-05T20:48:40.144Z,953.92
2023-03-05T20:49:40.111Z,953.92
2023-03-05T20:50:40.079Z,953.90
2023-03-05T20:51:40.059Z,953.87
2023-03-05T20:52:40.018Z,953.88
2023-03-05T20:53:39.980Z,953.84
2023-03-05T20:54:39.987Z,953.81
2023-03-05T20:55:39.920Z,953.81
2023-03-05T20:56:39.906Z,953.83
2023-03-05T20:57:39.850Z,953.80
2023-03-05T20:58:39.821Z,953.77
2023-03-05T20:59:39.787Z,953.77
2023-03-05T21:00:39.767Z,953.77
2023-03-05T21:01:39.860Z,953.77
2023-03-05T21:02:39.690Z,953.75
2023-03-05T21:03:39.654Z,953.73
2023-03-05T21:04:39.626Z,953.76
2023-03-05T21:05:39.612Z,953.69
2023-03-05T21:06:39.570Z,953.67
2023-03-05T21:07:39.525Z,953.65
2023-03-05T21:08:39.493Z,953.65
2023-03-05T21:09:39.459Z,953.61
2023-03-05T21:10:39.436Z,953.60
2023-03-05T21:11:39.397Z,953.59
2023-03-05T21:12:39.363Z,953.58
2023-03-05T21:13:39.331Z,953.61
2023-03-05T21:14:39.298Z,953.58
2023-03-05T21:15:39.264Z,953.60
2023-03-05T21:16:39.334Z,953.58
2023-03-05T21:17:39.215Z,953.57
2023-03-05T21:18:39.166Z,953.54
2023-03-05T21:19:39.135Z,953.52
2023-03-05T21:20:39.101Z,953.51
2023-03-05T21:21:39.130Z,953.51
2023-03-05T21:22:39.032Z,953.48
2023-03-05T21:23:38.999Z,953.51
2023-03-05T21:24:38.968Z,953.49
2023-03-05T21:25:38.972Z,953.48
2023-03-05T21:26:38.903Z,953.47
2023-03-05T21:27:38.864Z,953.51
2023-03-05T21:28:38.833Z,953.46
2023-03-05T21:29:38.800Z,953.41
2023-03-05T21:30:38.769Z,953.45
2023-03-05T21:31:38.954Z,953.46
2023-03-05T21:32:38.777Z,953.43
2023-03-05T21:33:38.691Z,953.45
2023-03-05T21:34:38.634Z,953.36
2023-03-05T21:35:38.618Z,953.38
2023-03-05T21:36:38.574Z,953.35
2023-03-05T21:37:38.532Z,953.33
2023-03-05T21:38:38.501Z,953.31
2023-03-05T21:39:38.475Z,953.33
2023-03-05T21:40:38.433Z,953.36
2023-03-05T21:41:38.400Z,953.34
2023-03-05T21:42:38.367Z,953.37
2023-03-05T21:43:38.336Z,953.38
2023-03-05T21:44:38.300Z,953.33
2023-03-05T21:45:38.363Z,953.33
2023-03-05T21:46:38.235Z,953.32
2023-03-05T21:47:38.201Z,953.31
2023-03-05T21:48:38.176Z,953.30
2023-03-05T21:49:38.152Z,953.31
2023-03-05T21:50:38.105Z,953.33
2023-03-05T21:51:38.066Z,953.33
2023-03-05T21:52:38.034Z,953.30
2023-03-05T21:53:38.004Z,953.27
2023-03-05T21:54:37.986Z,953.30
2023-03-05T21:55:37.932Z,953.25
2023-03-05T21:56:37.905Z,953.24
2023-03-05T21:57:37.863Z,953.26
2023-03-05T21:58:37.839Z,953.27
2023-03-05T21:59:37.794Z,953.23
2023-03-05T22:00:37.765Z,953.23
2023-03-05T22:01:37.734Z,953.20
2023-03-05T22:02:37.694Z,953.22
2023-03-05T22:03:37.699Z,953.20
2023-03-05T22:04:37.628Z,953.19
2023-03-05T22:05:37.614Z,953.18
2023-03-05T22:06:37.564Z,953.18
2023-03-05T22:07:37.537Z,953.23
2023-03-05T22:08:37.494Z,953.23
2023-03-05T22:09:37.457Z,953.21
2023-03-05T22:10:37.427Z,953.22
2023-03-05T22:11:37.414Z,953.21
2023-03-05T22:12:37.359Z,953.23
2023-03-05T22:13:37.331Z,953.20
2023-03-05T22:14:37.337Z,953.20
2023-03-05T22:15:37.260Z,953.22
2023-03-05T22:16:37.244Z,953.19
2023-03-05T22:17:37.195Z,953.22
2023-03-05T22:18:37.157Z,953.22
2023-03-05T22:19:37.127Z,953.22
2023-03-05T22:20:37.093Z,953.20
2023-03-05T22:21:37.080Z,953.21
2023-03-05T22:22:37.028Z,953.19
2023-03-05T22:23:36.995Z,953.19
2023-03-05T22:24:36.961Z,953.19
2023-03-05T22:25:36.929Z,953.17
2023-03-05T22:26:36.899Z,953.18
2023-03-05T22:27:36.868Z,953.15
2023-03-05T22:28:36.829Z,953.14
2023-03-05T22:29:36.799Z,953.13
2023-03-05T22:30:36.791Z,953.10
2023-03-05T22:31:36.733Z,953.08
2023-03-05T22:32:36.730Z,953.08
2023-03-05T22:33:36.674Z,953.03
2023-03-05T22:34:36.632Z,953.05
2023-03-05T22:35:36.634Z,953.04
2023-03-05T22:36:36.572Z,953.06
2023-03-05T22:37:36.570Z,953.03
2023-03-05T22:38:36.501Z,953.02
2023-03-05T22:39:36.483Z,953.04
2023-03-05T22:40:36.434Z,953.05
2023-03-05T22:41:36.403Z,953.06
2023-03-05T22:42:36.371Z,953.03
2023-03-05T22:43:36.339Z,953.00
2023-03-05T22:44:36.306Z,953.05
2023-03-05T22:45:36.274Z,953.03
2023-03-05T22:46:36.241Z,953.03
2023-03-05T22:47:36.210Z,953.02
2023-03-05T22:48:36.174Z,952.97
2023-03-05T22:49:36.149Z,952.98
2023-03-05T22:50:36.108Z,952.93
2023-03-05T22:51:36.077Z,952.98
2023-03-05T22:52:36.044Z,952.94
2023-03-05T22:53:36.030Z,952.94
2023-03-05T22:54:35.980Z,952.96
2023-03-05T22:55:35.945Z,952.93
2023-03-05T22:56:35.920Z,952.93
2023-03-05T22:57:35.883Z,952.91
2023-03-05T22:58:35.849Z,952.89
2023-03-05T22:59:35.824Z,952.93
2023-03-05T23:00:35.798Z,952.90
2023-03-05T23:01:35.754Z,952.93
2023-03-05T23:02:35.720Z,952.92
2023-03-05T23:03:35.724Z,952.91
2023-03-05T23:04:35.656Z,952.89
2023-03-05T23:05:35.626Z,952.89
2023-03-05T23:06:35.594Z,952.90
2023-03-05T23:07:35.561Z,952.88
2023-03-05T23:08:35.529Z,952.86
2023-03-05T23:09:35.519Z,952.85
2023-03-05T23:10:35.467Z,952.87
2023-03-05T23:11:35.435Z,952.85
2023-03-05T23:12:35.400Z,952.85
2023-03-05T23:13:35.370Z,952.85
2023-03-05T23:14:35.358Z,952.84
2023-03-05T23:15:35.338Z,952.85
2023-03-05T23:16:35.283Z,952.83
2023-03-05T23:17:35.245Z,952.84
2023-03-05T23:18:35.209Z,952.82
2023-03-05T23:19:35.176Z,952.74
2023-03-05T23:20:35.148Z,952.75
2023-03-05T23:21:35.112Z,952.75
2023-03-05T23:22:35.096Z,952.71
2023-03-05T23:23:35.075Z,952.73
2023-03-05T23:24:35.016Z,952.71
2023-03-05T23:25:35.006Z,952.69
2023-03-05T23:26:34.951Z,952.70
2023-03-05T23:27:34.919Z,952.69
2023-03-05T23:28:34.885Z,952.71
2023-03-05T23:29:34.853Z,952.71
2023-03-05T23:30:34.822Z,952.70
2023-03-05T23:31:34.828Z,952.70
2023-03-05T23:32:34.785Z,952.69
2023-03-05T23:33:34.723Z,952.69
2023-03-05T23:34:34.690Z,952.67
2023-03-05T23:35:34.722Z,952.71
2023-03-05T23:36:34.621Z,952.67
2023-03-05T23:37:34.590Z,952.66
2023-03-05T23:38:34.555Z,952.66